createdAt,value
2023-11-28T00:01:31.196Z,40.05
2023-11-28T00:04:02.652Z,46.38
2023-11-28T00:06:33.105Z,53.38
2023-11-28T00:09:03.593Z,47.05
2023-11-28T00:11:34.388Z,57.10
2023-11-28T00:14:04.542Z,46.88
2023-11-28T00:16:34.904Z,47.45
2023-11-28T00:19:06.653Z,44.63
2023-11-28T00:21:36.941Z,56.53
2023-11-28T00:24:08.338Z,51.15
2023-11-28T00:26:38.651Z,55.42
2023-11-28T00:29:09.399Z,48.33
2023-11-28T00:31:40.882Z,40.40
2023-11-28T00:34:12.486Z,46.28
2023-11-28T00:36:42.782Z,42.35
2023-11-28T00:39:13.489Z,40.22
2023-11-28T00:41:43.799Z,55.13
2023-11-28T00:44:14.237Z,49.47
2023-11-28T00:46:45.277Z,45.13
2023-11-28T00:49:16.655Z,43.38
2023-11-28T00:51:47.145Z,48.35
2023-11-28T00:54:17.838Z,43.00
2023-11-28T00:56:48.290Z,46.55
2023-11-28T00:59:18.350Z,48.72
2023-11-28T01:01:48.597Z,49.58
2023-11-28T01:04:19.958Z,40.97
2023-11-28T01:06:50.358Z,46.97
2023-11-28T01:09:20.254Z,41.35
2023-11-28T01:11:50.561Z,48.00
2023-11-28T01:14:20.855Z,47.80
2023-11-28T01:16:51.275Z,49.78
2023-11-28T01:19:22.645Z,38.53
2023-11-28T01:21:53.688Z,48.63
2023-11-28T01:24:23.597Z,42.38
2023-11-28T01:26:53.916Z,43.17
2023-11-28T01:29:24.079Z,43.25
2023-11-28T01:31:54.540Z,43.50
2023-11-28T01:34:26.463Z,45.30
2023-11-28T01:36:56.666Z,40.80
2023-11-28T01:39:26.586Z,46.38
2023-11-28T01:41:57.777Z,42.22
2023-11-28T01:44:28.116Z,37.97
2023-11-28T01:46:58.636Z,44.28
2023-11-28T01:49:35.998Z,47.45
2023-11-28T01:52:09.204Z,46.17
2023-11-28T01:54:39.913Z,38.08
2023-11-28T01:57:13.365Z,43.13
2023-11-28T01:59:43.993Z,50.00
2023-11-28T02:02:14.929Z,45.88
2023-11-28T02:04:46.411Z,40.88
2023-11-28T02:07:16.734Z,41.58
2023-11-28T02:09:46.848Z,44.63
2023-11-28T02:12:17.243Z,38.30
2023-11-28T02:14:47.670Z,40.67
2023-11-28T02:17:18.646Z,44.67
2023-11-28T02:19:52.299Z,48.03
2023-11-28T02:22:23.413Z,41.03
2023-11-28T02:24:56.432Z,34.95
2023-11-28T02:29:57.926Z,44.05
2023-11-28T02:32:28.222Z,36.45
2023-11-28T02:34:58.793Z,38.30
2023-11-28T02:37:30.067Z,43.55
2023-11-28T02:40:00.283Z,37.38
2023-11-28T02:42:32.115Z,34.40
2023-11-28T02:45:02.040Z,39.20
2023-11-28T02:47:32.459Z,33.38
2023-11-28T02:50:02.552Z,33.17
2023-11-28T02:52:33.526Z,31.15
2023-11-28T02:55:05.003Z,39.22
2023-11-28T02:57:36.923Z,29.92
2023-11-28T03:00:09.665Z,37.22
2023-11-28T03:02:40.212Z,37.40
2023-11-28T03:05:10.594Z,27.58
2023-11-28T03:07:40.994Z,29.05
2023-11-28T03:10:11.354Z,36.97
2023-11-28T03:12:43.936Z,29.92
2023-11-28T03:15:14.231Z,34.38
2023-11-28T03:17:44.802Z,28.27
2023-11-28T03:20:15.541Z,31.73
2023-11-28T03:22:46.182Z,26.05
2023-11-28T03:25:16.335Z,41.53
2023-11-28T03:27:47.968Z,43.53
2023-11-28T03:30:23.305Z,53.97
2023-11-28T03:32:54.077Z,39.38
2023-11-28T03:35:24.221Z,34.58
2023-11-28T03:37:54.508Z,26.40
2023-11-28T03:40:24.614Z,24.30
2023-11-28T03:42:57.706Z,28.83
2023-11-28T03:45:27.674Z,22.60
2023-11-28T03:47:58.186Z,27.73
2023-11-28T03:50:28.319Z,30.73
2023-11-28T03:52:58.662Z,36.72
2023-11-28T03:55:28.715Z,26.45
2023-11-28T03:58:00.409Z,27.58
2023-11-28T04:00:30.402Z,30.40
2023-11-28T04:03:01.085Z,29.67
2023-11-28T04:05:31.109Z,27.13
2023-11-28T04:08:01.577Z,23.75
2023-11-28T04:10:32.112Z,29.02
2023-11-28T04:13:04.231Z,28.38
2023-11-28T04:15:35.121Z,20.00
2023-11-28T04:18:05.819Z,24.58
2023-11-28T04:20:38.511Z,33.40
2023-11-28T04:23:09.899Z,34.03
2023-11-28T04:25:40.400Z,26.42
2023-11-28T04:28:12.372Z,28.35
2023-11-28T04:30:43.275Z,33.85
2023-11-28T04:33:19.869Z,27.27
2023-11-28T04:35:50.169Z,33.40
2023-11-28T04:38:21.088Z,30.85
2023-11-28T04:40:52.058Z,29.60
2023-11-28T04:43:24.179Z,28.95
2023-11-28T04:45:56.141Z,29.17
2023-11-28T04:48:26.863Z,27.73
2023-11-28T04:50:57.012Z,28.13
2023-11-28T04:53:29.885Z,29.13
2023-11-28T04:56:01.925Z,42.88
2023-11-28T04:58:36.345Z,29.33
2023-11-28T05:01:08.882Z,30.20
2023-11-28T05:03:39.730Z,35.10
2023-11-28T05:06:11.314Z,30.15
2023-11-28T05:08:42.107Z,27.20
2023-11-28T05:11:15.691Z,27.77
2023-11-28T05:13:49.210Z,26.02
2023-11-28T05:16:20.102Z,24.92
2023-11-28T05:18:57.420Z,27.27
2023-11-28T05:21:27.600Z,24.60
2023-11-28T05:24:01.109Z,24.80
2023-11-28T05:26:31.472Z,27.05
2023-11-28T05:29:05.110Z,21.63
2023-11-28T05:31:35.716Z,26.15
2023-11-28T05:34:07.676Z,21.08
2023-11-28T05:36:37.737Z,20.70
2023-11-28T05:39:09.474Z,20.05
2023-11-28T05:41:41.334Z,24.15
2023-11-28T05:44:12.119Z,21.33
2023-11-28T05:46:42.389Z,20.38
2023-11-28T05:49:13.136Z,22.38
2023-11-28T05:51:45.235Z,19.60
2023-11-28T05:54:15.639Z,23.63
2023-11-28T05:56:46.085Z,26.92
2023-11-28T05:59:17.665Z,25.88
2023-11-28T06:02:01.215Z,23.52
2023-11-28T06:04:32.675Z,18.52
2023-11-28T06:07:05.579Z,22.98
2023-11-28T06:09:39.474Z,18.55
2023-11-28T06:14:41.597Z,20.52
2023-11-28T06:17:13.399Z,23.25
2023-11-28T06:19:45.385Z,25.40
2023-11-28T06:22:16.054Z,19.83
2023-11-28T06:24:46.599Z,21.80
2023-11-28T06:27:16.713Z,25.10
2023-11-28T06:29:49.822Z,27.85
2023-11-28T06:32:20.860Z,21.67
2023-11-28T06:34:52.424Z,22.42
2023-11-28T06:37:33.745Z,22.58
2023-11-28T06:42:50.106Z,20.55
2023-11-28T06:45:22.635Z,28.30
2023-11-28T06:47:55.391Z,22.92
2023-11-28T06:50:25.999Z,18.40
2023-11-28T06:52:56.392Z,18.42
2023-11-28T06:55:29.503Z,17.40
2023-11-28T06:58:00.029Z,18.15
2023-11-28T07:00:33.039Z,18.38
2023-11-28T07:03:04.346Z,23.85
2023-11-28T07:05:34.867Z,21.70
2023-11-28T07:08:06.611Z,37.28
2023-11-28T07:10:37.828Z,23.33
2023-11-28T07:13:10.951Z,28.20
2023-11-28T07:15:43.979Z,17.48
2023-11-28T07:18:21.595Z,21.10
2023-11-28T07:20:55.494Z,25.77
2023-11-28T07:23:25.707Z,27.63
2023-11-28T07:25:56.262Z,22.42
2023-11-28T07:28:26.447Z,22.30
2023-11-28T07:30:58.326Z,27.02
2023-11-28T07:33:28.647Z,24.30
2023-11-28T07:35:58.925Z,20.90
2023-11-28T07:38:28.999Z,19.33
2023-11-28T07:40:59.560Z,32.67
2023-11-28T07:43:29.709Z,24.55
2023-11-28T07:46:01.603Z,20.45
2023-11-28T07:48:31.748Z,17.48
2023-11-28T07:51:02.085Z,16.55
2023-11-28T07:53:32.294Z,23.15
2023-11-28T07:56:04.447Z,21.63
2023-11-28T07:58:35.877Z,19.58
2023-11-28T08:01:10.193Z,18.33
2023-11-28T08:03:41.453Z,19.40
2023-11-28T08:06:18.918Z,15.30
2023-11-28T08:09:01.515Z,18.70
2023-11-28T08:11:32.547Z,13.90
2023-11-28T08:14:03.928Z,20.13
2023-11-28T08:16:39.270Z,22.83
2023-11-28T08:19:09.597Z,24.00
2023-11-28T08:21:48.086Z,23.77
2023-11-28T08:24:18.928Z,19.27
2023-11-28T08:26:49.399Z,25.40
2023-11-28T08:29:19.683Z,25.52
2023-11-28T08:31:52.645Z,16.88
2023-11-28T08:34:22.873Z,18.23
2023-11-28T08:36:54.071Z,18.98
2023-11-28T08:39:24.647Z,22.42
2023-11-28T08:41:55.975Z,18.50
2023-11-28T08:44:26.811Z,18.85
2023-11-28T08:46:58.862Z,20.45
2023-11-28T08:49:29.111Z,29.00
2023-11-28T08:52:00.709Z,21.48
2023-11-28T08:54:33.006Z,22.45
2023-11-28T08:57:03.615Z,22.60
2023-11-28T08:59:33.854Z,24.05
2023-11-28T09:02:06.255Z,27.25
2023-11-28T09:04:36.942Z,23.75
2023-11-28T09:07:07.993Z,21.45
2023-11-28T09:09:38.298Z,22.00
2023-11-28T09:12:09.487Z,20.05
2023-11-28T09:14:47.386Z,19.83
2023-11-28T09:17:25.782Z,22.02
2023-11-28T09:19:56.009Z,23.77
2023-11-28T09:22:26.735Z,23.48
2023-11-28T09:24:56.764Z,26.95
2023-11-28T09:27:27.204Z,32.47
2023-11-28T09:29:57.348Z,21.00
2023-11-28T09:32:29.357Z,24.25
2023-11-28T09:34:59.555Z,17.15
2023-11-28T09:37:30.118Z,17.80
2023-11-28T09:40:00.431Z,23.23
2023-11-28T09:42:34.367Z,16.42
2023-11-28T09:47:40.956Z,11.80
2023-11-28T09:50:14.720Z,16.70
2023-11-28T09:52:47.380Z,19.05
2023-11-28T09:55:18.527Z,21.45
2023-11-28T09:57:50.881Z,17.23
2023-11-28T10:00:22.326Z,14.25
2023-11-28T10:02:55.717Z,22.45
2023-11-28T10:05:25.842Z,18.80
2023-11-28T10:07:57.863Z,15.43
2023-11-28T10:10:29.322Z,18.77
2023-11-28T10:12:59.981Z,16.95
2023-11-28T10:15:30.717Z,17.88
2023-11-28T10:18:03.023Z,15.38
2023-11-28T10:20:33.446Z,21.00
2023-11-28T10:23:06.282Z,17.40
2023-11-28T10:25:36.696Z,13.60
2023-11-28T10:28:09.658Z,19.23
2023-11-28T10:30:42.440Z,25.20
2023-11-28T10:33:15.053Z,22.05
2023-11-28T10:35:46.867Z,21.20
2023-11-28T10:38:20.258Z,15.38
2023-11-28T10:40:55.593Z,20.15
2023-11-28T10:43:26.024Z,20.63
2023-11-28T10:45:59.644Z,19.95
2023-11-28T10:48:31.633Z,16.98
2023-11-28T10:51:03.636Z,19.40
2023-11-28T10:53:38.071Z,18.20
2023-11-28T10:56:11.177Z,17.33
2023-11-28T10:58:48.012Z,12.05
2023-11-28T11:01:21.004Z,15.82
2023-11-28T11:03:53.693Z,18.85
2023-11-28T11:06:25.065Z,18.65
2023-11-28T11:08:59.988Z,22.08
2023-11-28T11:11:31.562Z,21.23
2023-11-28T11:14:14.640Z,17.88
2023-11-28T11:16:56.935Z,22.90
2023-11-28T11:19:30.441Z,16.63
2023-11-28T11:22:08.048Z,21.92
2023-11-28T11:24:39.204Z,19.90
2023-11-28T11:27:10.220Z,19.27
2023-11-28T11:29:43.395Z,22.02
2023-11-28T11:32:15.470Z,21.23
2023-11-28T11:34:52.710Z,22.27
2023-11-28T11:37:34.006Z,22.38
2023-11-28T11:40:09.143Z,20.95
2023-11-28T11:42:42.097Z,21.20
2023-11-28T11:47:45.804Z,20.35
2023-11-28T11:50:28.606Z,18.42
2023-11-28T11:53:09.739Z,25.73
2023-11-28T11:55:40.244Z,24.38
2023-11-28T11:58:12.667Z,20.48
2023-11-28T12:00:44.899Z,18.67
2023-11-28T12:03:15.828Z,22.42
2023-11-28T12:05:54.050Z,27.70
2023-11-28T12:08:25.860Z,24.77
2023-11-28T12:11:07.744Z,24.02
2023-11-28T12:13:45.715Z,25.77
2023-11-28T12:16:19.211Z,21.30
2023-11-28T12:18:50.618Z,20.67
2023-11-28T12:21:22.964Z,21.10
2023-11-28T12:23:53.403Z,12.70
2023-11-28T12:26:25.209Z,16.50
2023-11-28T12:28:57.506Z,16.00
2023-11-28T12:31:28.761Z,19.17
2023-11-28T12:33:59.968Z,16.20
2023-11-28T12:36:34.082Z,20.17
2023-11-28T12:39:07.409Z,14.07
2023-11-28T12:41:41.714Z,19.30
2023-11-28T12:44:12.723Z,14.77
2023-11-28T12:46:44.653Z,23.90
2023-11-28T12:49:16.450Z,14.37
2023-11-28T12:51:48.806Z,19.33
2023-11-28T12:54:20.043Z,26.67
2023-11-28T12:56:54.538Z,16.67
2023-11-28T12:59:27.553Z,23.52
2023-11-28T13:01:58.226Z,20.73
2023-11-28T13:04:28.650Z,21.83
2023-11-28T13:07:11.047Z,19.98
2023-11-28T13:09:49.192Z,20.20
2023-11-28T13:12:22.079Z,19.65
2023-11-28T13:14:52.611Z,18.55
2023-11-28T13:19:57.640Z,24.27
2023-11-28T13:22:32.075Z,22.95
2023-11-28T13:25:02.625Z,24.38
2023-11-28T13:27:33.164Z,22.85
2023-11-28T13:30:06.528Z,19.52
2023-11-28T13:32:38.333Z,25.23
2023-11-28T13:35:11.984Z,26.40
2023-11-28T13:37:44.238Z,20.85
2023-11-28T13:40:16.988Z,19.17
2023-11-28T13:42:47.734Z,19.42
2023-11-28T13:45:18.722Z,22.88
2023-11-28T13:47:50.530Z,21.85
2023-11-28T13:50:20.934Z,24.98
2023-11-28T13:52:53.649Z,20.90
2023-11-28T13:55:25.740Z,27.13
2023-11-28T13:57:56.518Z,23.95
2023-11-28T14:00:26.786Z,24.17
2023-11-28T14:02:58.094Z,30.05
2023-11-28T14:05:28.558Z,25.33
2023-11-28T14:08:00.276Z,25.02
2023-11-28T14:10:34.721Z,26.70
2023-11-28T14:13:05.941Z,29.00
2023-11-28T14:15:36.472Z,21.55
2023-11-28T14:18:08.016Z,27.27
2023-11-28T14:20:40.045Z,31.33
2023-11-28T14:25:45.850Z,30.58
2023-11-28T14:30:46.686Z,29.88
2023-11-28T14:33:17.882Z,41.55
2023-11-28T14:35:48.656Z,30.17
2023-11-28T14:38:24.178Z,34.83
2023-11-28T14:40:57.180Z,35.22
2023-11-28T14:43:28.979Z,30.48
2023-11-28T14:46:00.342Z,36.95
2023-11-28T14:48:31.350Z,43.00
2023-11-28T14:51:02.772Z,37.65
2023-11-28T14:53:34.980Z,35.10
2023-11-28T14:56:06.173Z,30.85
2023-11-28T14:58:38.412Z,38.08
2023-11-28T15:01:10.013Z,32.55
2023-11-28T15:03:40.860Z,32.47
2023-11-28T15:06:12.027Z,37.17
2023-11-28T15:08:46.350Z,38.83
2023-11-28T15:11:17.949Z,30.17
2023-11-28T15:13:50.298Z,41.75
2023-11-28T15:16:20.909Z,42.10
2023-11-28T15:19:14.717Z,32.40
2023-11-28T15:21:45.054Z,37.78
2023-11-28T15:24:17.815Z,32.53
2023-11-28T15:26:48.165Z,35.00
2023-11-28T15:29:19.954Z,34.85
2023-11-28T15:31:53.401Z,33.13
2023-11-28T15:34:25.067Z,36.72
2023-11-28T15:36:57.003Z,34.92
2023-11-28T15:39:30.460Z,29.55
2023-11-28T15:42:02.180Z,35.28
2023-11-28T15:44:32.822Z,28.85
2023-11-28T15:47:04.689Z,40.00
2023-11-28T15:49:44.467Z,39.47
2023-11-28T15:52:20.215Z,35.23
2023-11-28T15:54:55.518Z,35.40
2023-11-28T15:57:26.110Z,32.33
2023-11-28T16:00:00.068Z,41.40
2023-11-28T16:02:31.572Z,35.88
2023-11-28T16:05:03.348Z,38.22
2023-11-28T16:07:35.386Z,41.00
2023-11-28T16:10:09.639Z,36.88
2023-11-28T16:12:40.384Z,41.78
2023-11-28T16:15:14.304Z,40.50
2023-11-28T16:17:44.981Z,56.23
2023-11-28T16:20:16.663Z,36.42
2023-11-28T16:22:48.693Z,37.42
2023-11-28T16:25:23.960Z,32.23
2023-11-28T16:27:53.932Z,35.33
2023-11-28T16:30:25.958Z,40.85
2023-11-28T16:32:57.023Z,43.45
2023-11-28T16:35:29.447Z,43.53
2023-11-28T16:38:00.756Z,55.63
2023-11-28T16:40:36.977Z,33.88
2023-11-28T16:43:08.018Z,37.60
2023-11-28T16:45:41.999Z,29.92
2023-11-28T16:48:16.331Z,35.08
2023-11-28T16:50:49.976Z,37.20
2023-11-28T16:53:22.075Z,29.13
2023-11-28T16:55:54.744Z,32.95
2023-11-28T16:58:25.255Z,38.10
2023-11-28T17:00:57.882Z,28.33
2023-11-28T17:03:32.554Z,30.27
2023-11-28T17:06:03.366Z,26.80
2023-11-28T17:08:33.745Z,30.25
2023-11-28T17:11:07.528Z,31.40
2023-11-28T17:16:10.228Z,28.17
2023-11-28T17:18:40.588Z,36.83
2023-11-28T17:21:18.659Z,23.00
2023-11-28T17:23:50.667Z,32.58
2023-11-28T17:26:22.650Z,36.20
2023-11-28T17:28:53.000Z,33.30
2023-11-28T17:31:24.320Z,35.30
2023-11-28T17:33:56.054Z,35.85
2023-11-28T17:36:32.672Z,25.00
2023-11-28T17:39:04.068Z,43.45
2023-11-28T17:41:36.176Z,34.63
2023-11-28T17:44:06.971Z,30.38
2023-11-28T17:46:37.800Z,43.40
2023-11-28T17:49:12.929Z,34.65
2023-11-28T17:51:46.682Z,37.90
2023-11-28T17:54:19.511Z,39.05
2023-11-28T17:56:51.935Z,36.53
2023-11-28T17:59:25.081Z,43.78
2023-11-28T18:01:56.571Z,44.40
2023-11-28T18:04:27.185Z,45.25
2023-11-28T18:06:59.540Z,53.67
2023-11-28T18:09:30.198Z,42.75
2023-11-28T18:12:06.198Z,49.88
2023-11-28T18:14:38.483Z,47.00
2023-11-28T18:17:09.323Z,43.15
2023-11-28T18:19:40.478Z,43.40
2023-11-28T18:22:13.520Z,60.20
2023-11-28T18:24:48.069Z,62.35
2023-11-28T18:27:26.350Z,48.63
2023-11-28T18:29:59.569Z,57.20
2023-11-28T18:32:36.088Z,51.92
2023-11-28T18:35:12.214Z,46.78
2023-11-28T18:37:43.127Z,53.70
2023-11-28T18:40:16.890Z,25.08
2023-11-28T18:42:59.113Z,42.75
2023-11-28T18:45:30.561Z,49.78
2023-11-28T18:48:02.508Z,41.85
2023-11-28T18:50:35.701Z,49.88
2023-11-28T18:53:09.962Z,50.78
2023-11-28T18:55:43.303Z,47.97
2023-11-28T18:58:23.651Z,43.30
2023-11-28T19:00:57.510Z,46.00
2023-11-28T19:03:32.424Z,40.33
2023-11-28T19:06:03.956Z,25.42
2023-11-28T19:08:35.286Z,37.67
2023-11-28T19:11:12.785Z,33.35
2023-11-28T19:13:48.427Z,33.33
2023-11-28T19:16:26.127Z,26.63
2023-11-28T19:19:00.800Z,35.97
2023-11-28T19:21:32.294Z,39.65
2023-11-28T19:24:03.681Z,48.63
2023-11-28T19:26:34.681Z,41.67
2023-11-28T19:29:07.766Z,36.72
2023-11-28T19:31:41.347Z,40.00
2023-11-28T19:34:13.081Z,39.78
2023-11-28T19:36:43.635Z,42.72
2023-11-28T19:39:15.160Z,35.78
2023-11-28T19:41:47.245Z,32.35
2023-11-28T19:44:20.825Z,40.67
2023-11-28T19:46:53.637Z,27.05
2023-11-28T19:49:26.015Z,38.38
2023-11-28T19:51:58.295Z,58.22
2023-11-28T19:54:31.030Z,36.85
2023-11-28T19:57:01.357Z,49.92
2023-11-28T19:59:34.081Z,41.85
2023-11-28T20:02:05.246Z,46.45
2023-11-28T20:04:38.066Z,34.65
2023-11-28T20:07:09.434Z,39.60
2023-11-28T20:09:40.479Z,50.40
2023-11-28T20:12:13.303Z,49.08
2023-11-28T20:14:49.613Z,40.40
2023-11-28T20:17:20.351Z,40.83
2023-11-28T20:19:52.141Z,49.55
2023-11-28T20:22:22.738Z,47.70
2023-11-28T20:24:53.495Z,59.85
2023-11-28T20:27:23.908Z,42.75
2023-11-28T20:29:58.333Z,40.92
2023-11-28T20:35:00.477Z,46.65
2023-11-28T20:37:35.706Z,36.17
2023-11-28T20:40:12.780Z,46.17
2023-11-28T20:42:43.750Z,33.22
2023-11-28T20:45:18.364Z,41.65
2023-11-28T20:47:49.224Z,38.17
2023-11-28T20:50:20.225Z,43.28
2023-11-28T20:52:52.612Z,42.38
2023-11-28T20:55:23.677Z,33.17
2023-11-28T20:57:54.060Z,30.42
2023-11-28T21:00:29.044Z,54.92
2023-11-28T21:03:00.212Z,41.47
2023-11-28T21:05:40.844Z,29.92
2023-11-28T21:08:12.073Z,45.55
2023-11-28T21:10:44.255Z,36.70
2023-11-28T21:13:14.726Z,35.15
2023-11-28T21:15:46.961Z,42.92
2023-11-28T21:18:17.661Z,54.35
2023-11-28T21:20:49.697Z,50.13
2023-11-28T21:23:19.873Z,65.65
2023-11-28T21:25:53.574Z,51.22
2023-11-28T21:28:25.093Z,51.83
2023-11-28T21:31:06.976Z,58.08
2023-11-28T21:33:38.852Z,47.58
2023-11-28T21:36:10.806Z,55.80
2023-11-28T21:38:44.247Z,57.10
2023-11-28T21:41:21.407Z,52.80
2023-11-28T21:43:54.823Z,54.45
2023-11-28T21:46:27.608Z,45.30
2023-11-28T21:49:01.227Z,42.03
2023-11-28T21:51:33.122Z,27.00
2023-11-28T21:54:05.637Z,43.22
2023-11-28T21:56:39.686Z,47.80
2023-11-28T21:59:13.180Z,43.25
2023-11-28T22:01:47.279Z,48.10
2023-11-28T22:06:49.882Z,43.30
2023-11-28T22:09:22.913Z,46.03
2023-11-28T22:11:58.528Z,53.42
2023-11-28T22:14:34.136Z,56.75
2023-11-28T22:17:10.366Z,50.75
2023-11-28T22:19:42.089Z,52.40
2023-11-28T22:22:12.639Z,55.25
2023-11-28T22:24:45.109Z,45.07
2023-11-28T22:27:16.860Z,49.00
2023-11-28T22:29:48.045Z,39.20
2023-11-28T22:32:23.093Z,51.08
2023-11-28T22:34:54.366Z,46.17
2023-11-28T22:37:24.735Z,45.60
2023-11-28T22:39:55.394Z,48.40
2023-11-28T22:42:28.011Z,46.17
2023-11-28T22:44:57.864Z,37.40
2023-11-28T22:47:30.524Z,28.25
2023-11-28T22:50:00.558Z,49.17
2023-11-28T22:52:30.851Z,44.03
2023-11-28T22:55:00.804Z,48.67
2023-11-28T22:57:31.056Z,51.55
2023-11-28T23:00:01.558Z,61.78
2023-11-28T23:02:33.840Z,48.63
2023-11-28T23:05:04.126Z,43.60
2023-11-28T23:07:35.769Z,50.05
2023-11-28T23:10:06.247Z,41.95
2023-11-28T23:12:36.539Z,47.80
2023-11-28T23:15:07.716Z,53.33
2023-11-28T23:17:39.717Z,50.42
2023-11-28T23:20:11.469Z,44.80
2023-11-28T23:22:48.300Z,52.20
2023-11-28T23:25:25.848Z,49.85
2023-11-28T23:27:56.618Z,55.95
2023-11-28T23:30:26.620Z,47.00
2023-11-28T23:32:58.405Z,45.33
2023-11-28T23:35:28.677Z,49.85
2023-11-28T23:37:59.279Z,43.35
2023-11-28T23:40:30.829Z,51.88
2023-11-28T23:45:32.461Z,40.85
2023-11-28T23:48:04.211Z,41.63
2023-11-28T23:50:34.465Z,53.78
2023-11-28T23:53:04.935Z,48.88
2023-11-28T23:55:34.866Z,52.17
2023-11-28T23:58:06.588Z,45.78
